Hallsville, Illinois
Current Conditions -  °F | °C
As of 11:55 AM on Monday 24 Nov 2014 (Local Time) from KAAA Reporting Station
Overcast Overcast  
Wind Chill: 25°   Ceiling: 1900
Heat Index: 34°   Visibility: 10mi
Dew Point: 29°   Wind: 14mph
Humidity: 80%   Direction: 250°WSW
Pressure: 29.57"   Gusts: 26mph
Location:  40.143°N, 88.9637°W
Report Text: KAAA 241755Z AUTO 25012G23KT 10SM BKN019 OVC026 01/M02 A2957 RMK AO2 60011 T00131018 10028 20011
Loading
Personal Weather Stations






























Interactive Weather Map New forecast layout! Learn more

10-Day Weather Forecast

Advertisements
Track Severe Weather on mobile